Rotselaar, Belgium
Current Conditions -  °F | °C
As of 12:20 PM on Sunday 21 Dec 2014 (Local Time) from EBBR Reporting Station
Broken Clouds Broken Clouds  
Wind Chill:   Ceiling: 1600
Heat Index:   Visibility: 6mi
Dew Point:   Wind: 17mph
Humidity: 81%   Direction: 230°SW
Pressure: 30.36"   Gusts: NA
Location:  50.95°N, 4.72°E
Report Text: EBBR 211120Z 23015KT 9999 BKN016 07/04 Q1028 NOSIG
Loading
Personal Weather Stations






























Interactive Weather Map New forecast layout! Learn more

10-Day Weather Forecast

Advertisements
Track Severe Weather on mobile